Terminal Aerodrome Forecast
Issued by NWS

Home | Current Version | Previous Version | Text Only | Print | Product List | Glossary On
Versions: 1 2 3 4 5 6 7 8 9 10 11 12 13 14 15 16 17 18 19 20 21
939
FTUS41 KPBZ 131545 AAA
TAFBVI
TAF AMD
KBVI 131545Z 1316/1412 30014G24KT 5SM BLSN OVC025
      TEMPO 1316/1319 4SM -SHSN OVC015
     FM131900 31012G20KT P6SM BKN035=

USA.gov is the U.S. government's official web portal to all federal, state and local government web resources and services.